Arapahoe, Colorado
Current Conditions -  °F | °C
As of 5:53 PM on Tuesday 27 Jan 2015 (Local Time) from KITR Reporting Station
Clear Clear  
Wind Chill: 11°   Ceiling: Unl
Heat Index: 11°   Visibility: 10mi
Dew Point:   Wind: 13mph
Humidity: 48%   Direction: 190°S
Pressure: 29.99"   Gusts: NA
Location:  38.85°N, 102.18°W
Report Text: KITR 280053Z AUTO 19011KT 10SM CLR 11/00 A2999 RMK AO2 SLP144 T01060000
Loading
Personal Weather Stations






























Interactive Weather Map New forecast layout! Learn more

10-Day Weather Forecast

Advertisements
Track Severe Weather on mobile